<?xml version="1.0" encoding="UTF-8" standalone="no" ?>
<gpx xmlns="http://www.topografix.com/GPX/1/1" xmlns:xsi="http://www.w3.org/2001/XMLSchema-instance" xsi:schemaLocation="http://www.topografix.com/GPX/1/1 http://www.topografix.com/GPX/1/1/gpx.xsd" version="1.1" creator="VisuGPX - https://www.visugpx.com">
  <metadata>
    <name>Raid VTT IFV 2022 de l'enfer</name>
    <desc><![CDATA[Tracé du raid avec le découpage en segments de guidage individuels avec thème d'animation imposé]]></desc>
  </metadata>
  <trk>
    <name><![CDATA[J1 - RUN 6 - Pierre]]></name>
    <desc><![CDATA[Géologie : orogénèse des alpes du sud]]></desc>
    <extensions>
      <line xmlns="http://www.topografix.com/GPX/gpx_style/0/2">
        <color>FF00FF</color>
        <width>4</width>
          <extensions>
            <sens>1</sens>
          </extensions>
      </line>
    </extensions>
    <trkseg>
      <trkpt lat="44.06484" lon="6.60226">
        <ele>1505.05859375</ele>
      </trkpt>
      <trkpt lat="44.06451" lon="6.60328">
        <ele>1513.1796875</ele>
      </trkpt>
      <trkpt lat="44.06437" lon="6.60326">
        <ele>1522</ele>
        <time>2021-11-15T19:36:46Z</time>
      </trkpt>
      <trkpt lat="44.06416" lon="6.60317">
        <ele>1523</ele>
        <time>2021-11-15T19:36:51Z</time>
      </trkpt>
      <trkpt lat="44.06383" lon="6.60311">
        <ele>1527</ele>
        <time>2021-11-15T19:36:59Z</time>
      </trkpt>
      <trkpt lat="44.0636" lon="6.60313">
        <ele>1531</ele>
        <time>2021-11-15T19:37:04Z</time>
      </trkpt>
      <trkpt lat="44.06319" lon="6.60312">
        <ele>1537</ele>
        <time>2021-11-15T19:37:14Z</time>
      </trkpt>
      <trkpt lat="44.06252" lon="6.60324">
        <ele>1544</ele>
        <time>2021-11-15T19:37:29Z</time>
      </trkpt>
      <trkpt lat="44.06191" lon="6.60324">
        <ele>1551</ele>
        <time>2021-11-15T19:37:44Z</time>
      </trkpt>
      <trkpt lat="44.06173" lon="6.60327">
        <ele>1553</ele>
        <time>2021-11-15T19:37:48Z</time>
      </trkpt>
      <trkpt lat="44.06072" lon="6.60303">
        <ele>1559</ele>
        <time>2021-11-15T19:38:12Z</time>
      </trkpt>
      <trkpt lat="44.06039" lon="6.60304">
        <ele>1558</ele>
        <time>2021-11-15T19:38:20Z</time>
      </trkpt>
      <trkpt lat="44.06009" lon="6.60315">
        <ele>1558</ele>
        <time>2021-11-15T19:38:27Z</time>
      </trkpt>
      <trkpt lat="44.05971" lon="6.60344">
        <ele>1557</ele>
        <time>2021-11-15T19:38:37Z</time>
      </trkpt>
      <trkpt lat="44.05949" lon="6.6035">
        <ele>1556</ele>
        <time>2021-11-15T19:38:42Z</time>
      </trkpt>
      <trkpt lat="44.05938" lon="6.60356">
        <ele>1555</ele>
        <time>2021-11-15T19:38:45Z</time>
      </trkpt>
      <trkpt lat="44.05924" lon="6.60369">
        <ele>1555</ele>
        <time>2021-11-15T19:38:49Z</time>
      </trkpt>
      <trkpt lat="44.05912" lon="6.60371">
        <ele>1554</ele>
        <time>2021-11-15T19:38:52Z</time>
      </trkpt>
      <trkpt lat="44.05872" lon="6.60368">
        <ele>1552</ele>
        <time>2021-11-15T19:39:01Z</time>
      </trkpt>
      <trkpt lat="44.05849" lon="6.60353">
        <ele>1551</ele>
        <time>2021-11-15T19:39:07Z</time>
      </trkpt>
      <trkpt lat="44.05804" lon="6.60314">
        <ele>1551</ele>
        <time>2021-11-15T19:39:19Z</time>
      </trkpt>
      <trkpt lat="44.05792" lon="6.60288">
        <ele>1551</ele>
        <time>2021-11-15T19:39:25Z</time>
      </trkpt>
      <trkpt lat="44.05789" lon="6.60267">
        <ele>1551</ele>
        <time>2021-11-15T19:39:28Z</time>
      </trkpt>
      <trkpt lat="44.05778" lon="6.60247">
        <ele>1551</ele>
        <time>2021-11-15T19:39:32Z</time>
      </trkpt>
      <trkpt lat="44.05768" lon="6.60221">
        <ele>1551</ele>
        <time>2021-11-15T19:39:37Z</time>
      </trkpt>
      <trkpt lat="44.05757" lon="6.60137">
        <ele>1552</ele>
        <time>2021-11-15T19:39:52Z</time>
      </trkpt>
      <trkpt lat="44.05747" lon="6.60118">
        <ele>1553</ele>
        <time>2021-11-15T19:39:56Z</time>
      </trkpt>
      <trkpt lat="44.05732" lon="6.60117">
        <ele>1553</ele>
        <time>2021-11-15T19:39:59Z</time>
      </trkpt>
      <trkpt lat="44.05706" lon="6.60129">
        <ele>1552</ele>
        <time>2021-11-15T19:40:06Z</time>
      </trkpt>
      <trkpt lat="44.0568" lon="6.60131">
        <ele>1551</ele>
        <time>2021-11-15T19:40:12Z</time>
      </trkpt>
      <trkpt lat="44.05652" lon="6.60114">
        <ele>1553</ele>
        <time>2021-11-15T19:40:19Z</time>
      </trkpt>
      <trkpt lat="44.05633" lon="6.60113">
        <ele>1553</ele>
        <time>2021-11-15T19:40:23Z</time>
      </trkpt>
      <trkpt lat="44.05577" lon="6.60128">
        <ele>1549</ele>
        <time>2021-11-15T19:40:36Z</time>
      </trkpt>
      <trkpt lat="44.05545" lon="6.60128">
        <ele>1549</ele>
        <time>2021-11-15T19:40:44Z</time>
      </trkpt>
      <trkpt lat="44.05443" lon="6.60109">
        <ele>1547</ele>
        <time>2021-11-15T19:41:08Z</time>
      </trkpt>
      <trkpt lat="44.05423" lon="6.60101">
        <ele>1547</ele>
        <time>2021-11-15T19:41:13Z</time>
      </trkpt>
      <trkpt lat="44.05397" lon="6.60082">
        <ele>1546</ele>
        <time>2021-11-15T19:41:20Z</time>
      </trkpt>
      <trkpt lat="44.05381" lon="6.60062">
        <ele>1545</ele>
        <time>2021-11-15T19:41:25Z</time>
      </trkpt>
      <trkpt lat="44.05374" lon="6.60036">
        <ele>1545</ele>
        <time>2021-11-15T19:41:29Z</time>
      </trkpt>
      <trkpt lat="44.05371" lon="6.60013">
        <ele>1546</ele>
        <time>2021-11-15T19:41:33Z</time>
      </trkpt>
      <trkpt lat="44.0538" lon="6.59981">
        <ele>1547</ele>
        <time>2021-11-15T19:41:39Z</time>
      </trkpt>
      <trkpt lat="44.05402" lon="6.5996">
        <ele>1549</ele>
        <time>2021-11-15T19:41:45Z</time>
      </trkpt>
      <trkpt lat="44.05525" lon="6.59884">
        <ele>1553</ele>
        <time>2021-11-15T19:42:17Z</time>
      </trkpt>
      <trkpt lat="44.05568" lon="6.59849">
        <ele>1552</ele>
        <time>2021-11-15T19:42:28Z</time>
      </trkpt>
      <trkpt lat="44.05605" lon="6.59813">
        <ele>1552</ele>
        <time>2021-11-15T19:42:39Z</time>
      </trkpt>
      <trkpt lat="44.05615" lon="6.59798">
        <ele>1552</ele>
        <time>2021-11-15T19:42:42Z</time>
      </trkpt>
      <trkpt lat="44.05621" lon="6.59782">
        <ele>1552</ele>
        <time>2021-11-15T19:42:45Z</time>
      </trkpt>
      <trkpt lat="44.05616" lon="6.59759">
        <ele>1552</ele>
        <time>2021-11-15T19:42:49Z</time>
      </trkpt>
      <trkpt lat="44.05606" lon="6.59738">
        <ele>1552</ele>
        <time>2021-11-15T19:42:54Z</time>
      </trkpt>
      <trkpt lat="44.05594" lon="6.59725">
        <ele>1553</ele>
        <time>2021-11-15T19:42:57Z</time>
      </trkpt>
      <trkpt lat="44.05581" lon="6.59718">
        <ele>1553</ele>
        <time>2021-11-15T19:43:00Z</time>
      </trkpt>
      <trkpt lat="44.05564" lon="6.59714">
        <ele>1553</ele>
        <time>2021-11-15T19:43:04Z</time>
      </trkpt>
      <trkpt lat="44.05545" lon="6.59711">
        <ele>1552</ele>
        <time>2021-11-15T19:43:09Z</time>
      </trkpt>
      <trkpt lat="44.05528" lon="6.59713">
        <ele>1551</ele>
        <time>2021-11-15T19:43:13Z</time>
      </trkpt>
      <trkpt lat="44.05471" lon="6.59727">
        <ele>1545</ele>
        <time>2021-11-15T19:43:26Z</time>
      </trkpt>
      <trkpt lat="44.05435" lon="6.59731">
        <ele>1541</ele>
        <time>2021-11-15T19:43:35Z</time>
      </trkpt>
      <trkpt lat="44.05418" lon="6.59726">
        <ele>1540</ele>
        <time>2021-11-15T19:43:39Z</time>
      </trkpt>
      <trkpt lat="44.05403" lon="6.59711">
        <ele>1540</ele>
        <time>2021-11-15T19:43:43Z</time>
      </trkpt>
      <trkpt lat="44.0539" lon="6.59696">
        <ele>1539</ele>
        <time>2021-11-15T19:43:47Z</time>
      </trkpt>
      <trkpt lat="44.05383" lon="6.59676">
        <ele>1540</ele>
        <time>2021-11-15T19:43:51Z</time>
      </trkpt>
      <trkpt lat="44.0538" lon="6.59651">
        <ele>1541</ele>
        <time>2021-11-15T19:43:55Z</time>
      </trkpt>
      <trkpt lat="44.05373" lon="6.59626">
        <ele>1540</ele>
        <time>2021-11-15T19:44:00Z</time>
      </trkpt>
      <trkpt lat="44.05346" lon="6.5957">
        <ele>1536</ele>
        <time>2021-11-15T19:44:11Z</time>
      </trkpt>
      <trkpt lat="44.05335" lon="6.59538">
        <ele>1535</ele>
        <time>2021-11-15T19:44:17Z</time>
      </trkpt>
      <trkpt lat="44.05327" lon="6.59523">
        <ele>1535</ele>
        <time>2021-11-15T19:44:20Z</time>
      </trkpt>
      <trkpt lat="44.05296" lon="6.59486">
        <ele>1529</ele>
        <time>2021-11-15T19:44:30Z</time>
      </trkpt>
      <trkpt lat="44.05284" lon="6.59468">
        <ele>1528</ele>
        <time>2021-11-15T19:44:34Z</time>
      </trkpt>
      <trkpt lat="44.05268" lon="6.59456">
        <ele>1526</ele>
        <time>2021-11-15T19:44:38Z</time>
      </trkpt>
      <trkpt lat="44.05253" lon="6.59452">
        <ele>1523</ele>
        <time>2021-11-15T19:44:42Z</time>
      </trkpt>
      <trkpt lat="44.05239" lon="6.59442">
        <ele>1520</ele>
        <time>2021-11-15T19:44:45Z</time>
      </trkpt>
      <trkpt lat="44.05227" lon="6.59425">
        <ele>1519</ele>
        <time>2021-11-15T19:44:49Z</time>
      </trkpt>
      <trkpt lat="44.052" lon="6.59359">
        <ele>1518</ele>
        <time>2021-11-15T19:45:02Z</time>
      </trkpt>
      <trkpt lat="44.05167" lon="6.59262">
        <ele>1516</ele>
        <time>2021-11-15T19:45:20Z</time>
      </trkpt>
      <trkpt lat="44.05147" lon="6.59231">
        <ele>1514</ele>
        <time>2021-11-15T19:45:27Z</time>
      </trkpt>
      <trkpt lat="44.05135" lon="6.5922">
        <ele>1513</ele>
        <time>2021-11-15T19:45:30Z</time>
      </trkpt>
      <trkpt lat="44.05114" lon="6.59211">
        <ele>1510</ele>
        <time>2021-11-15T19:45:35Z</time>
      </trkpt>
      <trkpt lat="44.05097" lon="6.59214">
        <ele>1508</ele>
        <time>2021-11-15T19:45:39Z</time>
      </trkpt>
      <trkpt lat="44.05028" lon="6.59208">
        <ele>1500</ele>
        <time>2021-11-15T19:45:56Z</time>
      </trkpt>
      <trkpt lat="44.05011" lon="6.59192">
        <ele>1497</ele>
        <time>2021-11-15T19:46:00Z</time>
      </trkpt>
      <trkpt lat="44.05005" lon="6.5918">
        <ele>1497</ele>
        <time>2021-11-15T19:46:03Z</time>
      </trkpt>
      <trkpt lat="44.05003" lon="6.59167">
        <ele>1496</ele>
        <time>2021-11-15T19:46:05Z</time>
      </trkpt>
      <trkpt lat="44.04999" lon="6.59163">
        <ele>1496</ele>
        <time>2021-11-15T19:46:06Z</time>
      </trkpt>
      <trkpt lat="44.04976" lon="6.59172">
        <ele>1491</ele>
        <time>2021-11-15T19:46:12Z</time>
      </trkpt>
      <trkpt lat="44.04965" lon="6.59167">
        <ele>1488</ele>
        <time>2021-11-15T19:46:15Z</time>
      </trkpt>
      <trkpt lat="44.04966" lon="6.59142">
        <ele>1487</ele>
        <time>2021-11-15T19:46:19Z</time>
      </trkpt>
      <trkpt lat="44.04973" lon="6.59107">
        <ele>1486</ele>
        <time>2021-11-15T19:46:25Z</time>
      </trkpt>
      <trkpt lat="44.04978" lon="6.59098">
        <ele>1487</ele>
        <time>2021-11-15T19:46:27Z</time>
      </trkpt>
      <trkpt lat="44.04977" lon="6.59094">
        <ele>1486</ele>
        <time>2021-11-15T19:46:27Z</time>
      </trkpt>
      <trkpt lat="44.0497" lon="6.5909">
        <ele>1484</ele>
        <time>2021-11-15T19:46:29Z</time>
      </trkpt>
      <trkpt lat="44.04959" lon="6.59098">
        <ele>1483</ele>
        <time>2021-11-15T19:46:32Z</time>
      </trkpt>
      <trkpt lat="44.04918" lon="6.5915">
        <ele>1477</ele>
        <time>2021-11-15T19:46:45Z</time>
      </trkpt>
      <trkpt lat="44.04909" lon="6.59172">
        <ele>1476</ele>
        <time>2021-11-15T19:46:49Z</time>
      </trkpt>
      <trkpt lat="44.04901" lon="6.59247">
        <ele>1475</ele>
        <time>2021-11-15T19:47:02Z</time>
      </trkpt>
      <trkpt lat="44.04884" lon="6.59281">
        <ele>1468</ele>
        <time>2021-11-15T19:47:09Z</time>
      </trkpt>
      <trkpt lat="44.04882" lon="6.59308">
        <ele>1466</ele>
        <time>2021-11-15T19:47:14Z</time>
      </trkpt>
      <trkpt lat="44.04874" lon="6.59321">
        <ele>1464</ele>
        <time>2021-11-15T19:47:16Z</time>
      </trkpt>
      <trkpt lat="44.04853" lon="6.59333">
        <ele>1459</ele>
        <time>2021-11-15T19:47:22Z</time>
      </trkpt>
      <trkpt lat="44.04844" lon="6.59325">
        <ele>1457</ele>
        <time>2021-11-15T19:47:24Z</time>
      </trkpt>
      <trkpt lat="44.0483" lon="6.59319">
        <ele>1454</ele>
        <time>2021-11-15T19:47:28Z</time>
      </trkpt>
      <trkpt lat="44.04826" lon="6.59336">
        <ele>1453</ele>
        <time>2021-11-15T19:47:31Z</time>
      </trkpt>
      <trkpt lat="44.04817" lon="6.59345">
        <ele>1451</ele>
        <time>2021-11-15T19:47:33Z</time>
      </trkpt>
      <trkpt lat="44.04811" lon="6.59345">
        <ele>1449</ele>
        <time>2021-11-15T19:47:35Z</time>
      </trkpt>
      <trkpt lat="44.04744" lon="6.59326">
        <ele>1438</ele>
        <time>2021-11-15T19:47:51Z</time>
      </trkpt>
      <trkpt lat="44.04709" lon="6.59331">
        <ele>1435</ele>
        <time>2021-11-15T19:47:59Z</time>
      </trkpt>
    </trkseg>
  </trk>
</gpx>